createdAt,value
2022-07-31T00:02:07.829Z,100865.13
2022-07-31T00:04:34.548Z,100858.34
2022-07-31T00:07:01.421Z,100852.06
2022-07-31T00:09:48.949Z,100852.41
2022-07-31T00:12:14.547Z,100850.97
2022-07-31T00:14:40.931Z,100854.03
2022-07-31T00:17:07.295Z,100857.59
2022-07-31T00:19:33.655Z,100852.25
2022-07-31T00:22:00.173Z,100859.69
2022-07-31T00:24:26.594Z,100849.06
2022-07-31T00:26:56.495Z,100841.47
2022-07-31T00:29:22.836Z,100834.72
2022-07-31T00:31:49.179Z,100847.72
2022-07-31T00:34:15.534Z,100841.25
2022-07-31T00:36:41.887Z,100833.88
2022-07-31T00:39:08.470Z,100835.63
2022-07-31T00:41:42.644Z,100838.22
2022-07-31T00:44:12.416Z,100836.28
2022-07-31T00:46:40.307Z,100839.69
2022-07-31T00:49:07.634Z,100837.22
2022-07-31T00:51:33.994Z,100835.00
2022-07-31T00:54:00.338Z,100834.34
2022-07-31T00:56:26.679Z,100834.66
2022-07-31T00:58:53.063Z,100834.34
2022-07-31T01:01:20.162Z,100832.44
2022-07-31T01:03:46.690Z,100829.88
2022-07-31T01:06:13.070Z,100824.69
2022-07-31T01:08:39.748Z,100828.06
2022-07-31T01:11:27.414Z,100822.72
2022-07-31T01:14:00.419Z,100829.81
2022-07-31T01:16:33.895Z,100832.56
2022-07-31T01:19:08.345Z,100828.56
2022-07-31T01:21:47.256Z,100824.41
2022-07-31T01:24:44.953Z,100835.47
2022-07-31T01:27:30.735Z,100826.28
2022-07-31T01:30:01.093Z,100823.56
2022-07-31T01:32:34.475Z,100826.94
2022-07-31T01:35:24.566Z,100821.38
2022-07-31T01:37:58.413Z,100825.78
2022-07-31T01:40:35.014Z,100820.56
2022-07-31T01:43:22.614Z,100823.28
2022-07-31T01:45:55.421Z,100825.88
2022-07-31T01:48:22.966Z,100820.25
2022-07-31T01:50:52.395Z,100818.19
2022-07-31T01:53:22.075Z,100823.81
2022-07-31T01:56:02.901Z,100813.22
2022-07-31T01:58:34.622Z,100811.72
2022-07-31T02:01:03.581Z,100800.97
2022-07-31T02:03:42.940Z,100805.66
2022-07-31T02:06:13.325Z,100811.41
2022-07-31T02:08:40.422Z,100800.97
2022-07-31T02:11:08.469Z,100807.25
2022-07-31T02:13:36.621Z,100808.69
2022-07-31T02:16:04.893Z,100802.72
2022-07-31T02:18:34.041Z,100790.06
2022-07-31T02:21:00.626Z,100784.09
2022-07-31T02:23:27.038Z,100788.41
2022-07-31T02:25:54.421Z,100791.38
2022-07-31T02:28:21.587Z,100790.97
2022-07-31T02:30:49.663Z,100793.06
2022-07-31T02:33:25.436Z,100791.63
2022-07-31T02:35:55.448Z,100804.97
2022-07-31T02:38:26.435Z,100793.59
2022-07-31T02:40:56.110Z,100793.13
2022-07-31T02:43:25.076Z,100788.28
2022-07-31T02:45:52.107Z,100781.22
2022-07-31T02:48:18.719Z,100775.09
2022-07-31T02:50:45.295Z,100772.19
2022-07-31T02:53:12.166Z,100777.50
2022-07-31T02:55:40.092Z,100766.72
2022-07-31T02:58:06.447Z,100766.06
2022-07-31T03:00:32.872Z,100774.13
2022-07-31T03:02:59.309Z,100772.16
2022-07-31T03:05:25.811Z,100773.78
2022-07-31T03:07:52.228Z,100775.09
2022-07-31T03:10:18.940Z,100781.16
2022-07-31T03:12:50.806Z,100780.09
2022-07-31T03:15:19.499Z,100785.56
2022-07-31T03:17:47.869Z,100778.66
2022-07-31T03:20:15.573Z,100772.31
2022-07-31T03:22:43.413Z,100778.75
2022-07-31T03:25:10.152Z,100773.44
2022-07-31T03:27:36.590Z,100775.69
2022-07-31T03:30:04.311Z,100764.44
2022-07-31T03:32:30.821Z,100769.09
2022-07-31T03:34:57.153Z,100773.25
2022-07-31T03:37:23.680Z,100779.06
2022-07-31T03:39:50.063Z,100776.63
2022-07-31T03:42:18.998Z,100773.72
2022-07-31T03:44:47.463Z,100765.19
2022-07-31T03:47:16.398Z,100766.16
2022-07-31T03:49:43.738Z,100763.56
2022-07-31T03:52:12.510Z,100756.34
2022-07-31T03:54:39.820Z,100761.03
2022-07-31T03:57:08.944Z,100764.78
2022-07-31T03:59:40.586Z,100765.75
2022-07-31T04:02:14.744Z,100768.34
2022-07-31T04:04:44.324Z,100769.16
2022-07-31T04:07:10.711Z,100768.78
2022-07-31T04:09:37.135Z,100758.22
2022-07-31T04:12:04.062Z,100772.34
2022-07-31T04:14:30.687Z,100772.03
2022-07-31T04:16:57.034Z,100783.13
2022-07-31T04:19:23.404Z,100780.75
2022-07-31T04:21:49.729Z,100778.81
2022-07-31T04:24:16.314Z,100778.84
2022-07-31T04:26:42.848Z,100775.16
2022-07-31T04:29:09.361Z,100774.31
2022-07-31T04:31:35.716Z,100779.97
2022-07-31T04:34:02.063Z,100779.78
2022-07-31T04:36:29.538Z,100774.50
2022-07-31T04:38:57.285Z,100778.69
2022-07-31T04:41:23.637Z,100781.56
2022-07-31T04:43:49.989Z,100779.78
2022-07-31T04:46:17.759Z,100786.09
2022-07-31T04:48:44.970Z,100777.66
2022-07-31T04:51:22.789Z,100773.75
2022-07-31T04:53:50.273Z,100767.25
2022-07-31T04:56:18.101Z,100766.56
2022-07-31T04:58:44.447Z,100758.34
2022-07-31T05:01:10.845Z,100751.75
2022-07-31T05:03:37.723Z,100752.69
2022-07-31T05:06:11.615Z,100755.56
2022-07-31T05:08:38.723Z,100752.00
2022-07-31T05:11:06.265Z,100757.06
2022-07-31T05:13:32.582Z,100758.56
2022-07-31T05:15:58.932Z,100753.47
2022-07-31T05:18:25.295Z,100751.97
2022-07-31T05:20:51.629Z,100749.91
2022-07-31T05:23:17.972Z,100752.38
2022-07-31T05:25:44.297Z,100735.66
2022-07-31T05:28:10.621Z,100746.44
2022-07-31T05:30:38.691Z,100745.09
2022-07-31T05:33:05.077Z,100748.44
2022-07-31T05:35:31.422Z,100747.22
2022-07-31T05:37:57.740Z,100742.91
2022-07-31T05:40:24.069Z,100747.53
2022-07-31T05:42:50.390Z,100741.38
2022-07-31T05:45:16.765Z,100745.41
2022-07-31T05:47:43.108Z,100747.75
2022-07-31T05:50:10.214Z,100749.13
2022-07-31T05:52:37.686Z,100743.28
2022-07-31T05:55:04.655Z,100739.28
2022-07-31T05:57:33.555Z,100743.44
2022-07-31T06:00:00.575Z,100755.66
2022-07-31T06:02:30.252Z,100752.03
2022-07-31T06:04:56.591Z,100749.16
2022-07-31T06:07:22.929Z,100747.25
2022-07-31T06:09:49.331Z,100740.84
2022-07-31T06:12:16.773Z,100743.66
2022-07-31T06:14:43.138Z,100734.84
2022-07-31T06:17:09.533Z,100743.97
2022-07-31T06:19:35.892Z,100741.06
2022-07-31T06:22:02.425Z,100738.56
2022-07-31T06:24:29.042Z,100739.22
2022-07-31T06:27:02.776Z,100736.66
2022-07-31T06:29:41.382Z,100728.28
2022-07-31T06:32:08.738Z,100727.75
2022-07-31T06:34:35.098Z,100720.28
2022-07-31T06:37:01.434Z,100717.00
2022-07-31T06:39:54.579Z,100713.97
2022-07-31T06:42:24.691Z,100715.84
2022-07-31T06:44:52.275Z,100715.31
2022-07-31T06:47:21.537Z,100713.00
2022-07-31T06:49:47.939Z,100728.47
2022-07-31T06:52:14.262Z,100731.75
2022-07-31T06:54:40.619Z,100723.03
2022-07-31T06:57:07.178Z,100722.06
2022-07-31T06:59:40.478Z,100713.44
2022-07-31T07:02:08.076Z,100706.75
2022-07-31T07:05:06.234Z,100706.25
2022-07-31T07:07:21.104Z,100699.91
2022-07-31T07:09:47.570Z,100696.53
2022-07-31T07:12:16.867Z,100699.38
2022-07-31T07:14:44.135Z,100707.41
2022-07-31T07:17:10.478Z,100697.50
2022-07-31T07:19:40.486Z,100698.13
2022-07-31T07:22:07.052Z,100694.88
2022-07-31T07:24:33.649Z,100702.69
2022-07-31T07:27:00.018Z,100696.25
2022-07-31T07:29:26.375Z,100696.78
2022-07-31T07:31:52.721Z,100704.22
2022-07-31T07:34:19.078Z,100697.38
2022-07-31T07:36:45.398Z,100695.19
2022-07-31T07:39:11.864Z,100692.94
2022-07-31T07:41:38.222Z,100685.66
2022-07-31T07:44:06.514Z,100693.38
2022-07-31T07:46:32.994Z,100686.25
2022-07-31T07:48:59.582Z,100684.94
2022-07-31T07:51:25.995Z,100687.78
2022-07-31T07:53:52.391Z,100684.94
2022-07-31T07:56:18.867Z,100688.84
2022-07-31T07:58:45.230Z,100680.72
2022-07-31T08:01:11.875Z,100675.75
2022-07-31T08:03:48.460Z,100674.09
2022-07-31T08:06:16.934Z,100674.09
2022-07-31T08:08:43.318Z,100668.66
2022-07-31T08:11:09.678Z,100661.16
2022-07-31T08:13:36.085Z,100668.47
2022-07-31T08:16:05.198Z,100667.22
2022-07-31T08:18:31.558Z,100654.69
2022-07-31T08:20:57.884Z,100656.31
2022-07-31T08:23:24.264Z,100656.34
2022-07-31T08:25:51.517Z,100653.09
2022-07-31T08:28:19.554Z,100648.78
2022-07-31T08:30:50.451Z,100644.09
2022-07-31T08:33:16.782Z,100643.81
2022-07-31T08:35:44.803Z,100640.13
2022-07-31T08:38:18.219Z,100637.97
2022-07-31T08:40:45.271Z,100643.06
2022-07-31T08:44:00.219Z,100644.84
2022-07-31T08:46:01.343Z,100643.28
2022-07-31T08:48:30.906Z,100635.81
2022-07-31T08:50:58.165Z,100640.25
2022-07-31T08:53:25.691Z,100630.81
2022-07-31T08:55:56.372Z,100630.50
2022-07-31T08:58:23.949Z,100638.09
2022-07-31T09:00:51.408Z,100639.69
2022-07-31T09:03:18.024Z,100629.34
2022-07-31T09:05:44.392Z,100627.38
2022-07-31T09:08:12.393Z,100623.34
2022-07-31T09:10:47.614Z,100623.31
2022-07-31T09:13:18.310Z,100618.22
2022-07-31T09:15:45.965Z,100611.88
2022-07-31T09:18:17.332Z,100608.75
2022-07-31T09:20:53.868Z,100614.25
2022-07-31T09:23:20.192Z,100609.50
2022-07-31T09:25:57.475Z,100615.88
2022-07-31T09:28:37.026Z,100618.22
2022-07-31T09:31:04.887Z,100607.91
2022-07-31T09:33:31.579Z,100623.78
2022-07-31T09:35:58.629Z,100616.59
2022-07-31T09:38:36.415Z,100611.06
2022-07-31T09:41:56.182Z,100603.94
2022-07-31T09:44:11.059Z,100612.25
2022-07-31T09:46:45.871Z,100611.09
2022-07-31T09:49:12.739Z,100607.91
2022-07-31T09:51:43.969Z,100608.31
2022-07-31T09:54:25.078Z,100603.16
2022-07-31T09:56:51.449Z,100606.72
2022-07-31T09:59:17.892Z,100601.53
2022-07-31T10:01:46.769Z,100605.84
2022-07-31T10:04:13.208Z,100594.75
2022-07-31T10:06:41.213Z,100590.78
2022-07-31T10:09:07.757Z,100589.59
2022-07-31T10:11:34.223Z,100589.94
2022-07-31T10:14:02.774Z,100584.75
2022-07-31T10:16:34.469Z,100584.03
2022-07-31T10:19:02.654Z,100582.81
2022-07-31T10:21:37.649Z,100587.56
2022-07-31T10:24:05.269Z,100576.63
2022-07-31T10:26:57.786Z,100584.03
2022-07-31T10:29:21.792Z,100586.72
2022-07-31T10:31:48.568Z,100582.03
2022-07-31T10:34:15.906Z,100592.13
2022-07-31T10:36:44.834Z,100578.28
2022-07-31T10:39:43.726Z,100573.47
2022-07-31T10:42:29.236Z,100577.25
2022-07-31T10:45:04.618Z,100574.94
2022-07-31T10:47:31.010Z,100571.88
2022-07-31T10:49:57.368Z,100581.38
2022-07-31T10:52:30.990Z,100582.13
2022-07-31T10:54:58.346Z,100577.38
2022-07-31T10:57:27.083Z,100580.50
2022-07-31T10:59:53.822Z,100579.53
2022-07-31T11:02:34.400Z,100575.66
2022-07-31T11:05:11.058Z,100565.75
2022-07-31T11:07:37.718Z,100564.09
2022-07-31T11:10:09.838Z,100568.59
2022-07-31T11:12:36.264Z,100567.47
2022-07-31T11:15:02.730Z,100562.88
2022-07-31T11:18:21.040Z,100560.91
2022-07-31T11:20:30.780Z,100554.25
2022-07-31T11:23:06.279Z,100560.59
2022-07-31T11:25:36.723Z,100553.88
2022-07-31T11:28:14.937Z,100552.25
2022-07-31T11:31:07.752Z,100544.31
2022-07-31T11:33:41.945Z,100544.25
2022-07-31T11:36:18.109Z,100545.72
2022-07-31T11:38:49.126Z,100533.22
2022-07-31T11:41:16.998Z,100530.97
2022-07-31T11:43:50.963Z,100530.66
2022-07-31T11:46:25.702Z,100538.25
2022-07-31T11:48:53.386Z,100530.19
2022-07-31T11:51:20.208Z,100540.03
2022-07-31T11:53:57.121Z,100526.63
2022-07-31T11:56:25.874Z,100528.94
2022-07-31T11:58:57.397Z,100524.56
2022-07-31T12:01:25.626Z,100528.44
2022-07-31T12:03:52.393Z,100528.34
2022-07-31T12:06:20.248Z,100521.34
2022-07-31T12:08:50.323Z,100519.13
2022-07-31T12:11:18.479Z,100515.50
2022-07-31T12:13:46.708Z,100526.22
2022-07-31T12:16:13.458Z,100523.88
2022-07-31T12:18:51.904Z,100521.16
2022-07-31T12:21:19.036Z,100520.00
2022-07-31T12:23:48.478Z,100519.28
2022-07-31T12:26:29.765Z,100513.34
2022-07-31T12:29:08.458Z,100515.72
2022-07-31T12:31:51.787Z,100515.75
2022-07-31T12:34:27.242Z,100520.91
2022-07-31T12:36:58.506Z,100519.72
2022-07-31T12:39:24.887Z,100514.16
2022-07-31T12:42:21.058Z,100507.00
2022-07-31T12:44:58.899Z,100504.97
2022-07-31T12:47:27.782Z,100506.19
2022-07-31T12:49:54.267Z,100501.25
2022-07-31T12:52:20.668Z,100503.59
2022-07-31T12:54:47.217Z,100493.78
2022-07-31T12:57:13.624Z,100492.06
2022-07-31T12:59:40.188Z,100486.41
2022-07-31T13:02:06.706Z,100490.84
2022-07-31T13:04:33.583Z,100485.94
2022-07-31T13:07:00.534Z,100493.75
2022-07-31T13:09:27.563Z,100487.81
2022-07-31T13:11:57.749Z,100492.94
2022-07-31T13:14:24.496Z,100492.97
2022-07-31T13:16:52.568Z,100492.69
2022-07-31T13:19:19.083Z,100497.47
2022-07-31T13:21:49.557Z,100487.13
2022-07-31T13:24:19.088Z,100494.31
2022-07-31T13:26:45.816Z,100491.94
2022-07-31T13:29:12.728Z,100487.56
2022-07-31T13:31:39.204Z,100484.75
2022-07-31T13:34:05.659Z,100481.19
2022-07-31T13:36:35.966Z,100481.59
2022-07-31T13:39:05.465Z,100477.59
2022-07-31T13:41:31.821Z,100479.97
2022-07-31T13:43:59.517Z,100483.13
2022-07-31T13:46:27.810Z,100473.63
2022-07-31T13:48:58.530Z,100480.78
2022-07-31T13:51:29.045Z,100476.06
2022-07-31T13:53:55.718Z,100476.81
2022-07-31T13:56:39.056Z,100476.03
2022-07-31T13:59:08.495Z,100484.38
2022-07-31T14:02:03.957Z,100474.44
2022-07-31T14:04:23.453Z,100463.97
2022-07-31T14:06:50.135Z,100478.13
2022-07-31T14:09:18.409Z,100476.88
2022-07-31T14:11:44.754Z,100484.50
2022-07-31T14:14:12.517Z,100479.06
2022-07-31T14:16:39.088Z,100476.97
2022-07-31T14:19:05.440Z,100486.00
2022-07-31T14:21:31.763Z,100486.56
2022-07-31T14:23:58.397Z,100485.66
2022-07-31T14:26:24.845Z,100485.00
2022-07-31T14:28:51.236Z,100491.81
2022-07-31T14:31:17.920Z,100485.13
2022-07-31T14:33:44.289Z,100486.31
2022-07-31T14:36:18.220Z,100488.94
2022-07-31T14:38:44.556Z,100487.47
2022-07-31T14:41:10.909Z,100497.88
2022-07-31T14:43:37.251Z,100492.44
2022-07-31T14:46:03.611Z,100486.53
2022-07-31T14:48:29.962Z,100490.75
2022-07-31T14:50:56.312Z,100492.75
2022-07-31T14:53:22.698Z,100499.63
2022-07-31T14:55:49.048Z,100512.97
2022-07-31T14:58:15.384Z,100513.50
2022-07-31T15:00:41.725Z,100522.59
2022-07-31T15:03:08.130Z,100516.84
2022-07-31T15:06:41.685Z,100514.81
2022-07-31T15:08:20.911Z,100520.41
2022-07-31T15:10:47.267Z,100518.63
2022-07-31T15:13:13.593Z,100510.28
2022-07-31T15:15:40.024Z,100503.25
2022-07-31T15:18:06.379Z,100501.13
2022-07-31T15:20:34.640Z,100498.66
2022-07-31T15:23:01.418Z,100492.47
2022-07-31T15:25:28.114Z,100482.09
2022-07-31T15:27:54.452Z,100490.19
2022-07-31T15:30:20.964Z,100489.75
2022-07-31T15:32:47.660Z,100484.66
2022-07-31T15:35:14.538Z,100484.88
2022-07-31T15:37:43.028Z,100476.78
2022-07-31T15:40:11.770Z,100473.34
2022-07-31T15:42:40.705Z,100463.16
2022-07-31T15:45:11.416Z,100465.94
2022-07-31T15:47:38.001Z,100457.22
2022-07-31T15:50:06.074Z,100465.66
2022-07-31T15:52:32.669Z,100460.44
2022-07-31T15:54:59.120Z,100457.16
2022-07-31T15:57:25.470Z,100457.13
2022-07-31T15:59:52.776Z,100443.72
2022-07-31T16:02:19.115Z,100435.97
2022-07-31T16:04:52.335Z,100443.91
2022-07-31T16:08:34.747Z,100440.22
2022-07-31T16:10:16.732Z,100437.97
2022-07-31T16:12:48.358Z,100434.69
2022-07-31T16:15:16.511Z,100427.25
2022-07-31T16:17:43.827Z,100418.31
2022-07-31T16:20:13.332Z,100405.38
2022-07-31T16:22:56.512Z,100402.63
2022-07-31T16:25:24.247Z,100408.53
2022-07-31T16:27:50.635Z,100396.22
2022-07-31T16:30:17.035Z,100395.00
2022-07-31T16:32:43.736Z,100385.91
2022-07-31T16:35:11.587Z,100395.50
2022-07-31T16:37:51.654Z,100382.78
2022-07-31T16:40:31.083Z,100380.34
2022-07-31T16:43:49.730Z,100386.69
2022-07-31T16:45:52.991Z,100377.84
2022-07-31T16:48:19.566Z,100375.00
2022-07-31T16:50:53.802Z,100376.09
2022-07-31T16:54:10.553Z,100364.31
2022-07-31T16:56:14.778Z,100362.00
2022-07-31T16:58:41.210Z,100356.88
2022-07-31T17:01:58.784Z,100351.41
2022-07-31T17:03:58.811Z,100355.84
2022-07-31T17:06:36.124Z,100355.84
2022-07-31T17:09:17.144Z,100361.41
2022-07-31T17:11:49.655Z,100354.28
2022-07-31T17:14:20.828Z,100354.16
2022-07-31T17:16:49.239Z,100353.19
2022-07-31T17:19:42.605Z,100349.81
2022-07-31T17:22:05.018Z,100342.69
2022-07-31T17:24:31.336Z,100347.81
2022-07-31T17:26:58.394Z,100339.59
2022-07-31T17:29:24.956Z,100337.19
2022-07-31T17:31:51.278Z,100337.25
2022-07-31T17:34:17.634Z,100324.16
2022-07-31T17:36:43.962Z,100327.69
2022-07-31T17:39:10.365Z,100333.13
2022-07-31T17:41:36.693Z,100330.59
2022-07-31T17:44:03.027Z,100333.25
2022-07-31T17:46:36.511Z,100337.44
2022-07-31T17:49:10.554Z,100343.53
2022-07-31T17:51:37.221Z,100350.38
2022-07-31T17:54:24.011Z,100342.13
2022-07-31T17:56:52.032Z,100359.34
2022-07-31T17:59:18.798Z,100353.63
2022-07-31T18:01:45.238Z,100357.97
2022-07-31T18:04:19.147Z,100360.13
2022-07-31T18:06:45.518Z,100364.25
2022-07-31T18:09:11.941Z,100367.88
2022-07-31T18:11:38.334Z,100370.50
2022-07-31T18:14:06.418Z,100379.75
2022-07-31T18:16:33.295Z,100388.03
2022-07-31T18:18:59.722Z,100392.78
2022-07-31T18:21:26.174Z,100393.59
2022-07-31T18:23:52.564Z,100400.09
2022-07-31T18:26:18.895Z,100397.69
2022-07-31T18:28:45.292Z,100394.31
2022-07-31T18:31:24.786Z,100402.19
2022-07-31T18:33:58.059Z,100409.88
2022-07-31T18:36:24.428Z,100400.28
2022-07-31T18:38:50.794Z,100407.41
2022-07-31T18:41:17.229Z,100413.78
2022-07-31T18:43:43.606Z,100415.84
2022-07-31T18:46:09.959Z,100408.75
2022-07-31T18:48:36.375Z,100420.56
2022-07-31T18:51:04.894Z,100421.69
2022-07-31T18:53:32.787Z,100428.91
2022-07-31T18:55:59.215Z,100427.03
2022-07-31T18:58:25.595Z,100427.16
2022-07-31T19:00:54.939Z,100424.00
2022-07-31T19:03:22.152Z,100422.25
2022-07-31T19:05:48.648Z,100429.28
2022-07-31T19:08:14.978Z,100419.66
2022-07-31T19:10:41.342Z,100428.63
2022-07-31T19:13:07.780Z,100425.00
2022-07-31T19:15:45.186Z,100422.69
2022-07-31T19:18:11.542Z,100425.22
2022-07-31T19:20:59.906Z,100431.06
2022-07-31T19:23:26.897Z,100431.50
2022-07-31T19:26:02.488Z,100436.69
2022-07-31T19:28:30.229Z,100434.72
2022-07-31T19:30:56.558Z,100435.41
2022-07-31T19:33:22.893Z,100433.44
2022-07-31T19:35:55.193Z,100438.78
2022-07-31T19:38:22.026Z,100437.38
2022-07-31T19:40:48.366Z,100443.06
2022-07-31T19:43:15.364Z,100442.28
2022-07-31T19:46:09.554Z,100444.09
2022-07-31T19:48:33.087Z,100439.63
2022-07-31T19:50:59.430Z,100446.00
2022-07-31T19:53:25.777Z,100439.81
2022-07-31T19:55:52.123Z,100439.63
2022-07-31T19:58:18.500Z,100443.56
2022-07-31T20:00:44.845Z,100438.19
2022-07-31T20:03:11.298Z,100441.41
2022-07-31T20:05:37.843Z,100447.78
2022-07-31T20:08:04.388Z,100449.75
2022-07-31T20:10:30.809Z,100445.63
2022-07-31T20:12:57.148Z,100447.78
2022-07-31T20:15:23.507Z,100445.94
2022-07-31T20:17:49.826Z,100449.81
2022-07-31T20:20:16.391Z,100450.34
2022-07-31T20:22:42.892Z,100452.41
2022-07-31T20:25:19.695Z,100446.91
2022-07-31T20:27:46.693Z,100455.25
2022-07-31T20:30:13.076Z,100448.34
2022-07-31T20:32:48.408Z,100455.69
2022-07-31T20:35:32.963Z,100457.31
2022-07-31T20:38:01.776Z,100453.41
2022-07-31T20:40:28.142Z,100452.94
2022-07-31T20:42:55.278Z,100451.63
2022-07-31T20:45:21.718Z,100450.03
2022-07-31T20:47:48.072Z,100448.94
2022-07-31T20:50:14.409Z,100443.38
2022-07-31T20:52:40.764Z,100449.13
2022-07-31T20:55:07.288Z,100452.53
2022-07-31T20:57:33.635Z,100449.59
2022-07-31T21:00:00.018Z,100450.66
2022-07-31T21:02:26.414Z,100447.44
2022-07-31T21:04:52.799Z,100442.75
2022-07-31T21:07:19.136Z,100447.75
2022-07-31T21:09:45.486Z,100447.09
2022-07-31T21:12:11.854Z,100444.34
2022-07-31T21:14:38.207Z,100441.06
2022-07-31T21:17:04.649Z,100449.16
2022-07-31T21:19:31.041Z,100446.06
2022-07-31T21:21:57.418Z,100446.84
2022-07-31T21:24:25.201Z,100454.66
2022-07-31T21:26:57.922Z,100447.19
2022-07-31T21:29:24.687Z,100447.19
2022-07-31T21:31:51.488Z,100438.94
2022-07-31T21:34:18.232Z,100445.94
2022-07-31T21:36:46.654Z,100438.84
2022-07-31T21:39:18.663Z,100453.88
2022-07-31T21:41:45.947Z,100444.00
2022-07-31T21:44:12.464Z,100452.69
2022-07-31T21:46:46.085Z,100452.97
2022-07-31T21:49:19.781Z,100453.50
2022-07-31T21:51:46.464Z,100455.63
2022-07-31T21:54:13.341Z,100457.00
2022-07-31T21:56:39.690Z,100458.41
2022-07-31T21:59:06.026Z,100463.91
2022-07-31T22:01:32.442Z,100459.09
2022-07-31T22:03:58.901Z,100450.84
2022-07-31T22:06:26.325Z,100456.00
2022-07-31T22:08:52.783Z,100459.31
2022-07-31T22:11:19.255Z,100457.22
2022-07-31T22:13:45.714Z,100460.97
2022-07-31T22:16:12.110Z,100466.84
2022-07-31T22:18:38.945Z,100460.06
2022-07-31T22:21:07.041Z,100461.75
2022-07-31T22:23:34.498Z,100461.38
2022-07-31T22:26:01.723Z,100464.59
2022-07-31T22:28:28.903Z,100466.88
2022-07-31T22:30:56.096Z,100462.88
2022-07-31T22:33:23.071Z,100466.81
2022-07-31T22:35:58.548Z,100462.00
2022-07-31T22:38:28.296Z,100464.81
2022-07-31T22:40:54.740Z,100463.50
2022-07-31T22:44:10.174Z,100461.13
2022-07-31T22:46:09.808Z,100461.13
2022-07-31T22:48:37.524Z,100465.31
2022-07-31T22:51:04.159Z,100464.25
2022-07-31T22:53:30.524Z,100468.97
2022-07-31T22:55:56.863Z,100465.75
2022-07-31T22:58:23.213Z,100468.69
2022-07-31T23:00:50.399Z,100463.34
2022-07-31T23:03:16.926Z,100462.22
2022-07-31T23:06:27.960Z,100464.44
2022-07-31T23:08:29.586Z,100457.34
2022-07-31T23:10:55.961Z,100454.22
2022-07-31T23:13:22.286Z,100458.31
2022-07-31T23:15:48.645Z,100462.69
2022-07-31T23:18:14.977Z,100456.91
2022-07-31T23:20:41.423Z,100457.69
2022-07-31T23:23:07.774Z,100462.75
2022-07-31T23:25:34.107Z,100465.59
2022-07-31T23:28:00.493Z,100468.91
2022-07-31T23:30:26.843Z,100460.44
2022-07-31T23:32:53.216Z,100465.44
2022-07-31T23:35:19.571Z,100465.75
2022-07-31T23:37:45.978Z,100460.50
2022-07-31T23:40:12.878Z,100462.44
2022-07-31T23:42:39.309Z,100455.09
2022-07-31T23:45:08.904Z,100456.19
2022-07-31T23:47:45.252Z,100460.72
2022-07-31T23:50:13.201Z,100456.09
2022-07-31T23:52:39.572Z,100456.00
2022-07-31T23:55:06.156Z,100457.50
2022-07-31T23:57:34.694Z,100459.56
